Rake, Iowa
Current Conditions -  °F | °C
As of 2:10 AM on Monday 24 Nov 2014 (Local Time) from KFXY Reporting Station
Overcast Overcast  
Wind Chill: 15°   Ceiling: 800
Heat Index: 28°   Visibility: 10mi
Dew Point: 28°   Wind: 22mph
Humidity: 100%   Direction: 310°NW
Pressure: 29.34"   Gusts: 30mph
Location:  43.48°N, 93.92°W
Report Text: KFXY 240810Z AUTO 31019G26KT 10SM OVC008 M02/M02 A2934 RMK AO2
Loading
Personal Weather Stations






























Interactive Weather Map New forecast layout! Learn more

10-Day Weather Forecast

Advertisements
Track Severe Weather on mobile